createdAt,value
2023-10-08T00:00:44.403Z,2.20
2023-10-08T00:02:46.729Z,2.80
2023-10-08T00:04:48.434Z,2.17
2023-10-08T00:06:53.572Z,2.50
2023-10-08T00:09:00.887Z,2.58
2023-10-08T00:11:11.168Z,2.35
2023-10-08T00:13:14.408Z,2.47
2023-10-08T00:15:16.105Z,2.30
2023-10-08T00:17:20.818Z,2.28
2023-10-08T00:19:23.320Z,2.20
2023-10-08T00:21:28.788Z,2.33
2023-10-08T00:23:31.513Z,2.28
2023-10-08T00:25:35.153Z,3.00
2023-10-08T00:27:40.637Z,2.20
2023-10-08T00:29:44.541Z,2.75
2023-10-08T00:31:47.051Z,2.72
2023-10-08T00:33:49.167Z,2.40
2023-10-08T00:35:51.275Z,2.40
2023-10-08T00:37:53.516Z,2.45
2023-10-08T00:42:01.120Z,2.00
2023-10-08T00:44:07.033Z,2.30
2023-10-08T00:46:25.172Z,2.38
2023-10-08T00:48:30.413Z,2.50
2023-10-08T00:50:43.811Z,2.10
2023-10-08T00:52:54.950Z,2.50
2023-10-08T00:55:05.866Z,2.40
2023-10-08T00:57:08.593Z,2.67
2023-10-08T00:59:14.178Z,2.50
2023-10-08T01:01:18.062Z,2.45
2023-10-08T01:03:20.677Z,2.70
2023-10-08T01:05:51.811Z,2.90
2023-10-08T01:07:54.689Z,2.65
2023-10-08T01:10:01.212Z,2.65
2023-10-08T01:12:23.766Z,2.33
2023-10-08T01:14:32.896Z,2.58
2023-10-08T01:16:37.891Z,2.50
2023-10-08T01:18:44.403Z,2.60
2023-10-08T01:20:48.587Z,2.70
2023-10-08T01:22:51.438Z,2.30
2023-10-08T01:24:53.063Z,2.67
2023-10-08T01:26:54.792Z,2.67
2023-10-08T01:28:56.387Z,2.38
2023-10-08T01:33:04.275Z,3.22
2023-10-08T01:37:24.692Z,2.15
2023-10-08T01:39:27.479Z,2.40
2023-10-08T01:41:32.057Z,2.45
2023-10-08T01:43:33.775Z,2.53
2023-10-08T01:45:42.291Z,2.72
2023-10-08T01:47:44.578Z,2.30
2023-10-08T01:49:47.505Z,2.67
2023-10-08T01:51:50.452Z,2.60
2023-10-08T01:53:59.465Z,2.45
2023-10-08T01:56:02.797Z,2.80
2023-10-08T01:58:05.165Z,2.50
2023-10-08T02:00:10.244Z,2.80
2023-10-08T02:02:16.369Z,2.33
2023-10-08T02:04:18.638Z,2.33
2023-10-08T02:06:22.064Z,2.53
2023-10-08T02:08:23.792Z,2.80
2023-10-08T02:10:26.309Z,2.80
2023-10-08T02:12:27.960Z,2.65
2023-10-08T02:14:32.627Z,2.45
2023-10-08T02:16:34.924Z,2.53
2023-10-08T02:18:36.990Z,2.58
2023-10-08T02:20:40.757Z,2.60
2023-10-08T02:22:42.482Z,2.55
2023-10-08T02:24:44.219Z,2.67
2023-10-08T02:26:45.955Z,2.20
2023-10-08T02:28:47.777Z,2.97
2023-10-08T02:30:49.614Z,2.55
2023-10-08T02:32:53.835Z,2.60
2023-10-08T02:34:55.550Z,2.90
2023-10-08T02:36:57.704Z,2.53
2023-10-08T02:38:59.271Z,2.50
2023-10-08T02:41:00.892Z,2.58
2023-10-08T02:43:02.963Z,2.85
2023-10-08T02:45:05.812Z,3.05
2023-10-08T02:47:09.235Z,2.72
2023-10-08T02:49:12.530Z,2.70
2023-10-08T02:51:17.177Z,2.75
2023-10-08T02:53:26.838Z,2.47
2023-10-08T02:55:35.839Z,2.70
2023-10-08T02:57:38.588Z,2.60
2023-10-08T02:59:41.601Z,2.40
2023-10-08T03:01:44.609Z,2.78
2023-10-08T03:03:48.729Z,2.70
2023-10-08T03:05:53.536Z,2.70
2023-10-08T03:07:55.304Z,2.78
2023-10-08T03:10:18.821Z,2.65
2023-10-08T03:12:20.400Z,2.42
2023-10-08T03:14:24.832Z,2.63
2023-10-08T03:16:34.867Z,2.83
2023-10-08T03:18:38.230Z,2.63
2023-10-08T03:20:44.184Z,2.50
2023-10-08T03:22:47.292Z,2.78
2023-10-08T03:24:49.895Z,2.53
2023-10-08T03:26:56.845Z,2.45
2023-10-08T03:29:00.484Z,2.42
2023-10-08T03:31:06.413Z,2.70
2023-10-08T03:33:11.737Z,2.83
2023-10-08T03:35:13.924Z,2.88
2023-10-08T03:37:30.469Z,2.92
2023-10-08T03:39:52.124Z,2.50
2023-10-08T03:42:07.085Z,2.70
2023-10-08T03:44:15.405Z,2.60
2023-10-08T03:46:17.198Z,2.90
2023-10-08T03:48:19.232Z,2.58
2023-10-08T03:50:33.943Z,2.85
2023-10-08T03:52:38.315Z,1.98
2023-10-08T03:54:49.022Z,2.58
2023-10-08T03:56:52.148Z,2.33
2023-10-08T03:58:55.521Z,2.53
2023-10-08T04:01:09.483Z,2.70
2023-10-08T04:03:24.533Z,2.80
2023-10-08T04:05:33.949Z,2.35
2023-10-08T04:08:01.683Z,2.92
2023-10-08T04:10:26.386Z,2.33
2023-10-08T04:12:28.169Z,2.67
2023-10-08T04:14:30.869Z,2.75
2023-10-08T04:16:38.552Z,2.80
2023-10-08T04:18:41.571Z,2.70
2023-10-08T04:21:02.158Z,2.70
2023-10-08T04:23:05.977Z,2.45
2023-10-08T04:25:07.956Z,2.75
2023-10-08T04:27:10.773Z,2.47
2023-10-08T04:29:17.537Z,2.30
2023-10-08T04:31:25.789Z,2.83
2023-10-08T04:35:31.913Z,2.95
2023-10-08T04:37:34.313Z,2.38
2023-10-08T04:41:43.619Z,2.55
2023-10-08T04:43:45.850Z,2.63
2023-10-08T04:45:47.606Z,3.00
2023-10-08T04:47:50.936Z,2.72
2023-10-08T04:49:54.202Z,2.58
2023-10-08T04:52:00.609Z,2.17
2023-10-08T04:54:05.814Z,2.47
2023-10-08T04:56:14.761Z,2.50
2023-10-08T04:58:22.415Z,2.40
2023-10-08T05:00:54.540Z,3.35
2023-10-08T05:05:12.709Z,3.22
2023-10-08T05:07:33.181Z,2.83
2023-10-08T05:09:49.078Z,2.70
2023-10-08T05:11:53.549Z,2.50
2023-10-08T05:14:06.942Z,2.63
2023-10-08T05:16:34.610Z,2.95
2023-10-08T05:18:56.148Z,2.45
2023-10-08T05:21:03.308Z,2.50
2023-10-08T05:23:31.080Z,2.63
2023-10-08T05:25:54.947Z,2.75
2023-10-08T05:27:56.551Z,2.58
2023-10-08T05:30:18.590Z,2.60
2023-10-08T05:32:39.945Z,2.70
2023-10-08T05:34:55.881Z,2.75
2023-10-08T05:37:00.476Z,2.53
2023-10-08T05:39:02.459Z,2.92
2023-10-08T05:41:04.515Z,2.85
2023-10-08T05:43:23.893Z,2.83
2023-10-08T05:45:34.748Z,2.78
2023-10-08T05:47:38.405Z,2.63
2023-10-08T05:49:43.313Z,2.67
2023-10-08T05:51:45.953Z,2.63
2023-10-08T05:53:50.254Z,3.03
2023-10-08T05:56:02.366Z,2.88
2023-10-08T05:58:14.783Z,2.25
2023-10-08T06:00:16.612Z,3.13
2023-10-08T06:02:41.469Z,2.70
2023-10-08T06:05:05.912Z,2.92
2023-10-08T06:07:18.114Z,3.17
2023-10-08T06:09:22.587Z,2.75
2023-10-08T06:11:45.882Z,3.28
2023-10-08T06:13:56.421Z,3.03
2023-10-08T06:15:58.783Z,2.88
2023-10-08T06:18:06.114Z,2.72
2023-10-08T06:20:11.197Z,3.35
2023-10-08T06:22:12.994Z,2.67
2023-10-08T06:24:18.531Z,2.53
2023-10-08T06:26:22.177Z,2.85
2023-10-08T06:28:26.386Z,2.58
2023-10-08T06:30:35.923Z,2.60
2023-10-08T06:32:38.623Z,2.50
2023-10-08T06:34:41.490Z,2.83
2023-10-08T06:36:43.216Z,3.05
2023-10-08T06:38:49.971Z,2.78
2023-10-08T06:40:53.867Z,2.95
2023-10-08T06:42:58.040Z,3.15
2023-10-08T06:44:59.939Z,2.55
2023-10-08T06:47:01.679Z,2.75
2023-10-08T06:49:09.698Z,2.70
2023-10-08T06:51:14.138Z,2.58
2023-10-08T06:53:19.089Z,2.45
2023-10-08T06:55:25.526Z,2.65
2023-10-08T06:57:27.737Z,2.90
2023-10-08T06:59:32.565Z,2.90
2023-10-08T07:01:40.180Z,2.80
2023-10-08T07:03:42.107Z,2.70
2023-10-08T07:05:55.249Z,3.13
2023-10-08T07:07:57.070Z,2.58
2023-10-08T07:10:00.635Z,2.60
2023-10-08T07:12:06.949Z,2.50
2023-10-08T07:14:12.035Z,2.40
2023-10-08T07:16:18.443Z,2.70
2023-10-08T07:18:26.715Z,2.75
2023-10-08T07:20:29.543Z,2.60
2023-10-08T07:22:31.539Z,2.53
2023-10-08T07:24:36.046Z,2.50
2023-10-08T07:26:38.375Z,2.63
2023-10-08T07:28:42.869Z,2.63
2023-10-08T07:30:47.118Z,2.95
2023-10-08T07:32:48.825Z,2.78
2023-10-08T07:34:58.424Z,2.80
2023-10-08T07:37:01.090Z,3.05
2023-10-08T07:39:08.976Z,2.65
2023-10-08T07:41:15.552Z,2.70
2023-10-08T07:43:20.836Z,2.58
2023-10-08T07:45:22.725Z,2.53
2023-10-08T07:47:24.696Z,2.70
2023-10-08T07:49:26.556Z,3.00
2023-10-08T07:51:28.759Z,2.67
2023-10-08T07:53:39.449Z,2.75
2023-10-08T07:55:41.021Z,2.50
2023-10-08T07:57:43.120Z,2.97
2023-10-08T07:59:47.513Z,2.60
2023-10-08T08:01:49.272Z,2.90
2023-10-08T08:03:51.599Z,2.72
2023-10-08T08:05:54.108Z,2.90
2023-10-08T08:07:57.833Z,2.80
2023-10-08T08:10:00.175Z,2.90
2023-10-08T08:12:08.759Z,2.60
2023-10-08T08:14:10.979Z,2.65
2023-10-08T08:16:21.883Z,2.70
2023-10-08T08:18:24.015Z,2.65
2023-10-08T08:20:36.475Z,2.70
2023-10-08T08:22:41.860Z,2.72
2023-10-08T08:24:46.288Z,2.47
2023-10-08T08:27:07.426Z,2.65
2023-10-08T08:29:10.341Z,3.28
2023-10-08T08:31:14.877Z,2.80
2023-10-08T08:33:23.532Z,2.75
2023-10-08T08:35:25.934Z,2.97
2023-10-08T08:37:30.677Z,3.30
2023-10-08T08:39:36.409Z,3.85
2023-10-08T08:41:39.653Z,3.03
2023-10-08T08:43:45.415Z,3.08
2023-10-08T08:45:50.726Z,2.97
2023-10-08T08:47:53.588Z,2.63
2023-10-08T08:50:01.270Z,2.97
2023-10-08T08:52:03.457Z,3.17
2023-10-08T08:54:13.637Z,2.95
2023-10-08T08:56:25.118Z,3.10
2023-10-08T08:58:26.686Z,3.20
2023-10-08T09:00:31.007Z,3.15
2023-10-08T09:02:33.270Z,3.22
2023-10-08T09:04:35.315Z,2.70
2023-10-08T09:06:41.646Z,3.15
2023-10-08T09:08:46.720Z,3.00
2023-10-08T09:10:54.117Z,3.17
2023-10-08T09:13:00.424Z,3.20
2023-10-08T09:15:04.137Z,2.85
2023-10-08T09:17:06.749Z,2.95
2023-10-08T09:21:20.110Z,2.70
2023-10-08T09:23:25.651Z,3.10
2023-10-08T09:25:30.017Z,2.50
2023-10-08T09:27:32.349Z,2.88
2023-10-08T09:29:41.102Z,3.30
2023-10-08T09:31:49.598Z,3.50
2023-10-08T09:36:03.898Z,3.25
2023-10-08T09:38:10.146Z,3.50
2023-10-08T09:40:21.974Z,3.35
2023-10-08T09:42:25.744Z,3.08
2023-10-08T09:44:27.906Z,3.30
2023-10-08T09:46:37.744Z,2.90
2023-10-08T09:48:42.862Z,3.90
2023-10-08T09:50:47.489Z,3.30
2023-10-08T09:53:23.476Z,2.97
2023-10-08T09:55:25.380Z,3.35
2023-10-08T09:57:28.069Z,3.22
2023-10-08T09:59:30.400Z,2.92
2023-10-08T10:01:33.436Z,3.17
2023-10-08T10:03:37.959Z,3.03
2023-10-08T10:05:39.870Z,2.88
2023-10-08T10:07:44.594Z,3.08
2023-10-08T10:09:50.762Z,3.00
2023-10-08T10:11:54.446Z,3.58
2023-10-08T10:14:01.377Z,2.97
2023-10-08T10:16:03.489Z,3.30
2023-10-08T10:18:16.943Z,3.80
2023-10-08T10:20:21.375Z,3.28
2023-10-08T10:22:35.268Z,3.60
2023-10-08T10:24:42.712Z,3.10
2023-10-08T10:26:48.471Z,3.03
2023-10-08T10:29:10.026Z,2.88
2023-10-08T10:31:20.519Z,3.65
2023-10-08T10:33:30.977Z,3.40
2023-10-08T10:35:34.047Z,3.75
2023-10-08T10:37:42.703Z,3.45
2023-10-08T10:39:46.421Z,3.35
2023-10-08T10:41:49.801Z,3.15
2023-10-08T10:43:54.196Z,3.20
2023-10-08T10:45:57.508Z,4.13
2023-10-08T10:48:12.258Z,3.28
2023-10-08T10:50:27.862Z,3.40
2023-10-08T10:52:34.086Z,4.03
2023-10-08T10:54:39.826Z,3.33
2023-10-08T10:56:46.136Z,3.47
2023-10-08T10:58:54.554Z,3.45
2023-10-08T11:01:00.920Z,3.95
2023-10-08T11:03:05.182Z,3.35
2023-10-08T11:05:20.673Z,3.60
2023-10-08T11:07:24.573Z,3.20
2023-10-08T11:09:40.102Z,3.67
2023-10-08T11:11:45.017Z,3.40
2023-10-08T11:13:55.587Z,3.20
2023-10-08T11:15:59.300Z,3.17
2023-10-08T11:18:01.119Z,3.53
2023-10-08T11:20:08.514Z,3.20
2023-10-08T11:22:17.059Z,3.20
2023-10-08T11:24:29.640Z,3.40
2023-10-08T11:26:39.949Z,3.45
2023-10-08T11:28:43.378Z,3.33
2023-10-08T11:30:48.010Z,3.22
2023-10-08T11:32:49.783Z,3.65
2023-10-08T11:35:00.992Z,3.13
2023-10-08T11:37:05.212Z,3.38
2023-10-08T11:39:12.750Z,3.30
2023-10-08T11:41:22.729Z,3.45
2023-10-08T11:43:25.294Z,3.65
2023-10-08T11:45:28.276Z,3.17
2023-10-08T11:47:36.891Z,3.72
2023-10-08T11:49:48.031Z,3.83
2023-10-08T11:51:49.708Z,3.78
2023-10-08T11:53:53.139Z,3.40
2023-10-08T11:55:57.836Z,3.95
2023-10-08T11:58:01.495Z,4.03
2023-10-08T12:00:31.277Z,3.50
2023-10-08T12:02:35.312Z,3.67
2023-10-08T12:04:37.349Z,3.80
2023-10-08T12:06:43.316Z,3.90
2023-10-08T12:08:50.665Z,3.67
2023-10-08T12:10:55.512Z,3.47
2023-10-08T12:13:00.912Z,3.55
2023-10-08T12:15:04.587Z,3.78
2023-10-08T12:17:12.918Z,3.72
2023-10-08T12:19:17.812Z,3.38
2023-10-08T12:21:20.558Z,3.97
2023-10-08T12:23:30.053Z,3.67
2023-10-08T12:25:33.290Z,3.83
2023-10-08T12:27:35.552Z,3.50
2023-10-08T12:29:39.361Z,3.85
2023-10-08T12:31:42.041Z,3.63
2023-10-08T12:33:44.748Z,3.80
2023-10-08T12:35:48.602Z,3.58
2023-10-08T12:37:50.516Z,3.67
2023-10-08T12:40:12.473Z,3.40
2023-10-08T12:42:14.151Z,4.00
2023-10-08T12:44:16.843Z,3.97
2023-10-08T12:46:19.616Z,4.13
2023-10-08T12:48:29.721Z,3.95
2023-10-08T12:50:43.227Z,4.05
2023-10-08T12:52:54.031Z,3.78
2023-10-08T12:54:57.251Z,3.90
2023-10-08T12:57:00.095Z,5.10
2023-10-08T12:59:07.269Z,11.23
2023-10-08T13:01:12.793Z,5.35
2023-10-08T13:03:24.341Z,6.30
2023-10-08T13:05:29.204Z,4.82
2023-10-08T13:07:39.651Z,20.52
2023-10-08T13:09:41.245Z,10.95
2023-10-08T13:11:44.649Z,8.82
2023-10-08T13:13:46.412Z,45.45
2023-10-08T13:15:48.015Z,6.10
2023-10-08T13:17:50.008Z,7.65
2023-10-08T13:21:55.874Z,21.63
2023-10-08T13:24:04.303Z,13.32
2023-10-08T13:26:08.291Z,17.90
2023-10-08T13:28:12.531Z,13.25
2023-10-08T13:30:14.479Z,4.40
2023-10-08T13:32:19.009Z,4.60
2023-10-08T13:34:22.519Z,9.93
2023-10-08T13:36:25.166Z,5.57
2023-10-08T13:38:30.973Z,7.72
2023-10-08T13:40:34.329Z,9.55
2023-10-08T13:42:36.019Z,6.70
2023-10-08T13:44:38.887Z,4.45
2023-10-08T13:46:44.215Z,10.73
2023-10-08T13:48:49.785Z,8.85
2023-10-08T13:50:52.908Z,3.85
2023-10-08T13:52:54.568Z,3.95
2023-10-08T13:54:56.506Z,3.60
2023-10-08T13:57:00.149Z,3.95
2023-10-08T13:59:07.602Z,3.65
2023-10-08T14:01:19.889Z,3.60
2023-10-08T14:03:25.820Z,3.75
2023-10-08T14:05:27.584Z,5.30
2023-10-08T14:07:29.436Z,4.22
2023-10-08T14:09:38.526Z,4.40
2023-10-08T14:11:40.769Z,4.20
2023-10-08T14:13:43.198Z,4.53
2023-10-08T14:15:49.043Z,4.50
2023-10-08T14:17:54.807Z,4.68
2023-10-08T14:20:08.041Z,5.05
2023-10-08T14:22:09.859Z,5.78
2023-10-08T14:26:18.298Z,5.20
2023-10-08T14:28:23.043Z,4.57
2023-10-08T14:30:26.167Z,6.40
2023-10-08T14:32:33.340Z,59.88
2023-10-08T14:34:44.379Z,49.42
2023-10-08T14:37:09.013Z,119.18
2023-10-08T14:39:30.021Z,151.90
2023-10-08T14:41:50.609Z,119.50
2023-10-08T14:43:52.866Z,58.35
2023-10-08T14:45:54.571Z,42.30
2023-10-08T14:47:57.361Z,34.70
2023-10-08T14:50:01.510Z,43.67
2023-10-08T14:52:05.194Z,26.15
2023-10-08T14:54:08.148Z,41.47
2023-10-08T14:56:10.159Z,21.98
2023-10-08T15:00:14.877Z,12.88
2023-10-08T15:02:17.002Z,15.35
2023-10-08T15:04:19.525Z,15.73
2023-10-08T15:06:21.814Z,11.18
2023-10-08T15:08:24.929Z,11.45
2023-10-08T15:10:26.896Z,22.27
2023-10-08T15:12:29.390Z,13.43
2023-10-08T15:14:32.345Z,11.65
2023-10-08T15:16:34.573Z,10.07
2023-10-08T15:20:45.054Z,4.70
2023-10-08T15:22:48.345Z,3.70
2023-10-08T15:24:49.908Z,4.20
2023-10-08T15:26:53.680Z,4.53
2023-10-08T15:28:55.970Z,4.22
2023-10-08T15:30:57.585Z,4.05
2023-10-08T15:32:59.500Z,3.97
2023-10-08T15:37:02.832Z,4.07
2023-10-08T15:39:06.350Z,4.03
2023-10-08T15:41:07.930Z,4.18
2023-10-08T15:43:09.491Z,5.13
2023-10-08T15:45:14.852Z,4.65
2023-10-08T15:47:18.679Z,4.53
2023-10-08T15:49:20.558Z,4.28
2023-10-08T15:51:22.218Z,4.47
2023-10-08T15:53:23.831Z,3.72
2023-10-08T15:55:27.293Z,4.70
2023-10-08T15:57:28.954Z,4.97
2023-10-08T15:59:30.746Z,4.38
2023-10-08T16:01:32.871Z,4.22
2023-10-08T16:05:37.659Z,5.28
2023-10-08T16:07:39.962Z,4.03
2023-10-08T16:11:46.504Z,3.72
2023-10-08T16:13:48.214Z,3.88
2023-10-08T16:15:50.410Z,3.60
2023-10-08T16:17:52.537Z,4.25
2023-10-08T16:19:54.396Z,3.85
2023-10-08T16:21:56.502Z,4.28
2023-10-08T16:26:01.244Z,4.20
2023-10-08T16:28:04.794Z,4.05
2023-10-08T16:30:12.762Z,4.53
2023-10-08T16:32:14.683Z,4.22
2023-10-08T16:34:19.739Z,4.03
2023-10-08T16:36:21.380Z,4.13
2023-10-08T16:38:23.792Z,3.50
2023-10-08T16:40:25.448Z,3.28
2023-10-08T16:42:27.597Z,3.42
2023-10-08T16:44:29.735Z,3.85
2023-10-08T16:48:33.990Z,3.00
2023-10-08T16:50:35.853Z,3.30
2023-10-08T16:52:37.457Z,3.45
2023-10-08T16:54:39.089Z,3.38
2023-10-08T16:56:40.992Z,3.35
2023-10-08T16:58:42.734Z,3.38
2023-10-08T17:00:44.907Z,3.45
2023-10-08T17:04:48.276Z,3.08
2023-10-08T17:06:50.922Z,3.95
2023-10-08T17:08:53.706Z,3.10
2023-10-08T17:10:55.744Z,3.78
2023-10-08T17:13:00.435Z,4.15
2023-10-08T17:15:02.549Z,4.10
2023-10-08T17:17:05.270Z,4.15
2023-10-08T17:19:08.608Z,5.13
2023-10-08T17:21:10.393Z,5.78
2023-10-08T17:23:12.240Z,4.05
2023-10-08T17:25:14.176Z,5.05
2023-10-08T17:27:15.788Z,5.18
2023-10-08T17:29:18.836Z,4.40
2023-10-08T17:31:20.726Z,6.70
2023-10-08T17:33:22.695Z,8.65
2023-10-08T17:35:24.422Z,5.47
2023-10-08T17:37:27.101Z,4.95
2023-10-08T17:39:28.952Z,4.60
2023-10-08T17:41:30.831Z,5.00
2023-10-08T17:43:32.947Z,4.25
2023-10-08T17:45:36.913Z,4.00
2023-10-08T17:47:40.432Z,4.53
2023-10-08T17:49:43.183Z,4.25
2023-10-08T17:51:45.088Z,4.80
2023-10-08T17:53:46.860Z,4.03
2023-10-08T17:55:48.672Z,4.75
2023-10-08T17:57:50.306Z,4.85
2023-10-08T17:59:52.061Z,4.25
2023-10-08T18:01:54.389Z,4.72
2023-10-08T18:03:56.143Z,4.88
2023-10-08T18:05:58.380Z,4.63
2023-10-08T18:08:00.570Z,4.45
2023-10-08T18:10:02.685Z,4.35
2023-10-08T18:14:07.103Z,4.15
2023-10-08T18:18:16.061Z,4.35
2023-10-08T18:20:21.130Z,4.05
2023-10-08T18:22:23.575Z,4.20
2023-10-08T18:24:29.113Z,4.72
2023-10-08T18:26:30.894Z,4.47
2023-10-08T18:28:32.737Z,4.18
2023-10-08T18:30:34.485Z,4.32
2023-10-08T18:32:37.414Z,4.57
2023-10-08T18:34:39.785Z,3.85
2023-10-08T18:36:42.460Z,4.05
2023-10-08T18:38:44.100Z,4.05
2023-10-08T18:40:46.534Z,3.72
2023-10-08T18:44:51.015Z,3.92
2023-10-08T18:46:53.770Z,3.50
2023-10-08T18:48:55.733Z,3.58
2023-10-08T18:51:12.085Z,3.78
2023-10-08T18:53:14.107Z,3.88
2023-10-08T18:55:16.284Z,3.58
2023-10-08T18:57:18.708Z,3.88
2023-10-08T18:59:21.668Z,3.33
2023-10-08T19:01:27.489Z,3.30
2023-10-08T19:03:29.569Z,3.47
2023-10-08T19:05:31.230Z,3.92
2023-10-08T19:07:36.123Z,3.40
2023-10-08T19:09:38.118Z,3.20
2023-10-08T19:11:39.881Z,3.55
2023-10-08T19:13:41.580Z,3.33
2023-10-08T19:15:43.391Z,3.20
2023-10-08T19:17:47.947Z,2.83
2023-10-08T19:19:49.914Z,3.55
2023-10-08T19:21:51.759Z,3.53
2023-10-08T19:23:54.517Z,2.97
2023-10-08T19:25:56.640Z,3.30
2023-10-08T19:28:00.155Z,2.97
2023-10-08T19:30:07.456Z,3.25
2023-10-08T19:32:12.145Z,3.13
2023-10-08T19:34:14.473Z,3.50
2023-10-08T19:38:17.881Z,2.85
2023-10-08T19:40:22.828Z,2.70
2023-10-08T19:42:24.652Z,2.80
2023-10-08T19:44:27.043Z,2.85
2023-10-08T19:46:28.991Z,3.22
2023-10-08T19:48:32.624Z,2.90
2023-10-08T19:50:41.838Z,2.80
2023-10-08T19:52:44.704Z,2.70
2023-10-08T19:54:47.472Z,2.58
2023-10-08T19:56:49.748Z,3.20
2023-10-08T19:58:52.272Z,2.50
2023-10-08T20:02:56.479Z,2.45
2023-10-08T20:04:58.216Z,2.35
2023-10-08T20:06:59.794Z,2.33
2023-10-08T20:09:02.479Z,2.20
2023-10-08T20:11:04.636Z,2.55
2023-10-08T20:13:06.726Z,2.28
2023-10-08T20:15:12.817Z,2.38
2023-10-08T20:17:14.406Z,2.13
2023-10-08T20:19:20.296Z,2.28
2023-10-08T20:21:22.965Z,2.30
2023-10-08T20:23:30.768Z,2.30
2023-10-08T20:25:37.604Z,2.42
2023-10-08T20:27:43.315Z,2.00
2023-10-08T20:29:46.179Z,2.13
2023-10-08T20:31:49.781Z,2.13
2023-10-08T20:33:54.239Z,2.17
2023-10-08T20:35:57.268Z,2.17
2023-10-08T20:37:59.075Z,2.13
2023-10-08T20:40:00.654Z,2.00
2023-10-08T20:42:02.526Z,1.90
2023-10-08T20:44:04.545Z,1.75
2023-10-08T20:46:07.955Z,1.88
2023-10-08T20:48:14.676Z,1.80
2023-10-08T20:50:30.523Z,2.00
2023-10-08T20:52:34.596Z,2.47
2023-10-08T20:54:36.627Z,2.08
2023-10-08T20:56:38.630Z,1.73
2023-10-08T20:58:40.277Z,2.08
2023-10-08T21:00:46.278Z,1.60
2023-10-08T21:02:55.749Z,1.70
2023-10-08T21:04:58.044Z,1.95
2023-10-08T21:07:00.905Z,1.80
2023-10-08T21:09:03.063Z,2.20
2023-10-08T21:11:05.165Z,1.70
2023-10-08T21:13:07.441Z,2.00
2023-10-08T21:15:20.934Z,1.90
2023-10-08T21:17:24.519Z,1.90
2023-10-08T21:19:27.102Z,1.80
2023-10-08T21:21:29.504Z,1.60
2023-10-08T21:23:31.178Z,1.92
2023-10-08T21:25:33.561Z,1.75
2023-10-08T21:29:41.975Z,1.60
2023-10-08T21:31:43.801Z,1.30
2023-10-08T21:33:45.948Z,1.92
2023-10-08T21:35:47.922Z,1.58
2023-10-08T21:37:51.423Z,1.95
2023-10-08T21:39:53.193Z,2.17
2023-10-08T21:41:54.899Z,1.60
2023-10-08T21:43:56.488Z,1.77
2023-10-08T21:45:58.124Z,1.90
2023-10-08T21:48:01.114Z,1.60
2023-10-08T21:50:04.415Z,1.83
2023-10-08T21:52:06.165Z,1.67
2023-10-08T21:54:08.112Z,1.60
2023-10-08T21:56:09.942Z,1.90
2023-10-08T21:58:11.552Z,1.80
2023-10-08T22:00:26.434Z,1.67
2023-10-08T22:02:44.714Z,1.70
2023-10-08T22:04:50.527Z,1.73
2023-10-08T22:06:54.917Z,1.73
2023-10-08T22:08:57.713Z,1.83
2023-10-08T22:10:59.380Z,1.67
2023-10-08T22:13:05.838Z,1.83
2023-10-08T22:15:17.455Z,2.08
2023-10-08T22:17:27.568Z,1.70
2023-10-08T22:19:33.738Z,1.75
2023-10-08T22:21:36.305Z,1.52
2023-10-08T22:23:40.012Z,1.70
2023-10-08T22:25:48.346Z,1.70
2023-10-08T22:27:50.852Z,1.67
2023-10-08T22:29:52.532Z,1.55
2023-10-08T22:31:57.057Z,2.13
2023-10-08T22:34:07.573Z,1.77
2023-10-08T22:36:29.647Z,1.73
2023-10-08T22:38:33.209Z,1.63
2023-10-08T22:40:49.738Z,1.73
2023-10-08T22:42:52.128Z,1.73
2023-10-08T22:44:57.015Z,1.77
2023-10-08T22:47:08.354Z,1.60
2023-10-08T22:49:20.622Z,1.70
2023-10-08T22:51:26.774Z,1.75
2023-10-08T22:53:29.325Z,1.67
2023-10-08T22:55:37.934Z,1.92
2023-10-08T22:57:39.479Z,1.75
2023-10-08T22:59:41.632Z,1.70
2023-10-08T23:01:54.377Z,1.80
2023-10-08T23:03:57.319Z,2.00
2023-10-08T23:05:59.400Z,1.83
2023-10-08T23:08:01.285Z,1.98
2023-10-08T23:10:02.869Z,2.10
2023-10-08T23:12:06.162Z,2.00
2023-10-08T23:14:09.857Z,1.80
2023-10-08T23:16:16.387Z,1.90
2023-10-08T23:18:24.561Z,1.67
2023-10-08T23:20:26.745Z,1.70
2023-10-08T23:22:28.772Z,1.75
2023-10-08T23:24:30.694Z,1.88
2023-10-08T23:26:32.634Z,1.85
2023-10-08T23:28:35.398Z,1.50
2023-10-08T23:30:37.956Z,2.00
2023-10-08T23:32:43.571Z,1.67
2023-10-08T23:34:45.365Z,1.80
2023-10-08T23:36:52.459Z,1.77
2023-10-08T23:39:08.168Z,2.10
2023-10-08T23:41:16.916Z,1.63
2023-10-08T23:43:18.655Z,1.75
2023-10-08T23:45:27.823Z,2.53
2023-10-08T23:47:29.783Z,1.80
2023-10-08T23:49:31.816Z,2.03
2023-10-08T23:51:39.447Z,2.03
2023-10-08T23:53:48.242Z,2.15
2023-10-08T23:56:02.260Z,2.25
2023-10-08T23:58:18.145Z,1.95
